createdAt,value
2023-10-02T00:01:05.881Z,99288.44
2023-10-02T00:03:35.292Z,99279.84
2023-10-02T00:06:04.328Z,99279.84
2023-10-02T00:08:41.699Z,99286.78
2023-10-02T00:11:38.587Z,99289.31
2023-10-02T00:14:24.004Z,99288.56
2023-10-02T00:17:05.584Z,99280.81
2023-10-02T00:19:39.507Z,99284.31
2023-10-02T00:22:32.557Z,99285.25
2023-10-02T00:25:04.912Z,99279.97
2023-10-02T00:27:35.501Z,99286.91
2023-10-02T00:30:08.885Z,99288.69
2023-10-02T00:32:42.381Z,99292.16
2023-10-02T00:35:14.201Z,99288.72
2023-10-02T00:37:48.714Z,99299.06
2023-10-02T00:40:23.183Z,99295.53
2023-10-02T00:42:56.408Z,99289.44
2023-10-02T00:45:30.814Z,99292.03
2023-10-02T00:48:21.704Z,99298.81
2023-10-02T00:50:51.567Z,99297.16
2023-10-02T00:53:29.781Z,99289.50
2023-10-02T00:56:04.402Z,99297.16
2023-10-02T00:58:34.027Z,99297.19
2023-10-02T01:01:06.563Z,99292.94
2023-10-02T01:03:55.167Z,99303.19
2023-10-02T01:06:27.808Z,99296.28
2023-10-02T01:08:57.109Z,99292.03
2023-10-02T01:11:35.600Z,99294.63
2023-10-02T01:14:05.112Z,99304.16
2023-10-02T01:16:37.890Z,99298.13
2023-10-02T01:19:07.967Z,99305.88
2023-10-02T01:21:37.091Z,99311.00
2023-10-02T01:24:18.470Z,99304.88
2023-10-02T01:26:52.336Z,99309.09
2023-10-02T01:29:24.194Z,99309.03
2023-10-02T01:31:53.979Z,99308.06
2023-10-02T01:34:37.450Z,99310.72
2023-10-02T01:37:28.237Z,99319.31
2023-10-02T01:40:14.709Z,99313.38
2023-10-02T01:42:45.445Z,99310.84
2023-10-02T01:45:16.450Z,99311.72
2023-10-02T01:47:53.172Z,99307.38
2023-10-02T01:50:25.561Z,99308.31
2023-10-02T01:52:56.687Z,99306.63
2023-10-02T01:55:31.502Z,99305.81
2023-10-02T01:58:21.825Z,99320.50
2023-10-02T02:00:52.619Z,99318.75
2023-10-02T02:03:21.971Z,99323.97
2023-10-02T02:05:53.481Z,99322.28
2023-10-02T02:08:24.596Z,99319.75
2023-10-02T02:11:16.395Z,99322.34
2023-10-02T02:13:51.065Z,99331.88
2023-10-02T02:16:27.161Z,99331.06
2023-10-02T02:18:56.303Z,99333.63
2023-10-02T02:21:26.466Z,99325.13
2023-10-02T02:24:08.772Z,99320.88
2023-10-02T02:26:40.910Z,99337.13
2023-10-02T02:29:25.839Z,99338.84
2023-10-02T02:31:56.611Z,99342.31
2023-10-02T02:34:27.971Z,99335.34
2023-10-02T02:36:58.696Z,99334.50
2023-10-02T02:39:29.050Z,99345.72
2023-10-02T02:42:23.649Z,99334.56
2023-10-02T02:44:52.767Z,99340.63
2023-10-02T02:47:25.874Z,99345.75
2023-10-02T02:50:00.843Z,99341.53
2023-10-02T02:52:33.924Z,99341.47
2023-10-02T02:55:14.447Z,99344.06
2023-10-02T02:57:51.150Z,99343.25
2023-10-02T03:00:37.501Z,99347.53
2023-10-02T03:03:26.325Z,99350.94
2023-10-02T03:06:00.138Z,99340.63
2023-10-02T03:08:39.851Z,99342.34
2023-10-02T03:11:09.027Z,99338.91
2023-10-02T03:13:42.143Z,99346.66
2023-10-02T03:16:18.651Z,99342.38
2023-10-02T03:18:49.873Z,99340.69
2023-10-02T03:21:24.701Z,99341.59
2023-10-02T03:24:01.227Z,99337.28
2023-10-02T03:26:45.830Z,99330.38
2023-10-02T03:29:23.814Z,99332.94
2023-10-02T03:32:02.443Z,99331.19
2023-10-02T03:34:35.342Z,99332.88
2023-10-02T03:37:15.007Z,99335.44
2023-10-02T03:40:15.104Z,99324.22
2023-10-02T03:42:43.689Z,99332.81
2023-10-02T03:45:18.882Z,99332.75
2023-10-02T03:48:02.697Z,99341.31
2023-10-02T03:50:37.570Z,99344.72
2023-10-02T03:53:14.072Z,99347.22
2023-10-02T03:55:44.601Z,99355.84
2023-10-02T03:58:15.073Z,99340.25
2023-10-02T04:00:52.332Z,99351.34
2023-10-02T04:03:27.278Z,99354.81
2023-10-02T04:05:58.912Z,99356.53
2023-10-02T04:08:38.688Z,99347.06
2023-10-02T04:11:13.579Z,99360.00
2023-10-02T04:13:58.273Z,99354.75
2023-10-02T04:16:32.344Z,99367.63
2023-10-02T04:19:05.054Z,99364.09
2023-10-02T04:21:46.121Z,99361.56
2023-10-02T04:24:24.608Z,99360.78
2023-10-02T04:27:10.067Z,99362.47
2023-10-02T04:29:39.705Z,99370.19
2023-10-02T04:32:15.175Z,99368.50
2023-10-02T04:34:57.953Z,99380.56
2023-10-02T04:37:33.028Z,99377.88
2023-10-02T04:40:24.201Z,99377.81
2023-10-02T04:43:16.319Z,99381.31
2023-10-02T04:45:48.433Z,99379.69
2023-10-02T04:48:27.199Z,99385.63
2023-10-02T04:50:57.868Z,99387.44
2023-10-02T04:53:29.599Z,99387.47
2023-10-02T04:56:21.351Z,99394.34
2023-10-02T04:59:00.323Z,99389.91
2023-10-02T05:01:42.692Z,99387.19
2023-10-02T05:04:20.164Z,99387.22
2023-10-02T05:06:57.108Z,99393.28
2023-10-02T05:09:39.930Z,99399.31
2023-10-02T05:12:24.195Z,99399.34
2023-10-02T05:14:56.278Z,99409.66
2023-10-02T05:17:46.069Z,99384.72
2023-10-02T05:20:16.605Z,99411.34
2023-10-02T05:23:04.205Z,99407.00
2023-10-02T05:25:38.461Z,99401.91
2023-10-02T05:28:43.820Z,99413.13
2023-10-02T05:31:27.212Z,99412.13
2023-10-02T05:34:23.789Z,99418.09
2023-10-02T05:37:13.854Z,99410.44
2023-10-02T05:39:43.192Z,99414.75
2023-10-02T05:42:17.116Z,99422.53
2023-10-02T05:45:01.291Z,99416.53
2023-10-02T05:47:42.139Z,99437.09
2023-10-02T05:50:16.523Z,99430.16
2023-10-02T05:52:54.884Z,99424.09
2023-10-02T05:55:56.371Z,99427.44
2023-10-02T05:58:32.682Z,99424.88
2023-10-02T06:01:18.368Z,99430.03
2023-10-02T06:03:58.521Z,99426.59
2023-10-02T06:06:42.783Z,99426.59
2023-10-02T06:09:15.916Z,99433.44
2023-10-02T06:12:07.417Z,99427.41
2023-10-02T06:14:43.775Z,99433.50
2023-10-02T06:17:21.816Z,99433.44
2023-10-02T06:20:01.106Z,99443.63
2023-10-02T06:22:48.891Z,99446.09
2023-10-02T06:25:30.037Z,99450.28
2023-10-02T06:28:28.869Z,99453.81
2023-10-02T06:31:09.700Z,99462.22
2023-10-02T06:33:42.192Z,99460.38
2023-10-02T06:36:17.573Z,99462.25
2023-10-02T06:38:49.884Z,99461.53
2023-10-02T06:41:20.633Z,99464.09
2023-10-02T06:44:16.451Z,99473.81
2023-10-02T06:46:57.714Z,99472.97
2023-10-02T06:49:34.631Z,99476.38
2023-10-02T06:52:26.225Z,99478.94
2023-10-02T06:55:01.662Z,99485.81
2023-10-02T06:57:53.844Z,99482.41
2023-10-02T07:00:56.166Z,99489.28
2023-10-02T07:03:41.659Z,99488.41
2023-10-02T07:06:20.606Z,99497.84
2023-10-02T07:09:08.290Z,99489.19
2023-10-02T07:12:26.619Z,99493.50
2023-10-02T07:15:23.771Z,99489.34
2023-10-02T07:18:13.629Z,99493.59
2023-10-02T07:20:45.036Z,99490.28
2023-10-02T07:23:24.154Z,99500.59
2023-10-02T07:26:27.433Z,99507.53
2023-10-02T07:29:04.841Z,99496.47
2023-10-02T07:31:58.352Z,99500.53
2023-10-02T07:34:48.376Z,99516.84
2023-10-02T07:37:27.753Z,99513.44
2023-10-02T07:40:08.650Z,99510.03
2023-10-02T07:42:48.020Z,99518.66
2023-10-02T07:45:32.223Z,99522.16
2023-10-02T07:48:12.713Z,99518.69
2023-10-02T07:51:10.675Z,99519.63
2023-10-02T07:54:09.252Z,99520.66
2023-10-02T07:56:55.782Z,99523.97
2023-10-02T07:59:32.405Z,99525.38
2023-10-02T08:02:24.599Z,99529.28
2023-10-02T08:05:04.825Z,99530.75
2023-10-02T08:08:12.376Z,99526.94
2023-10-02T08:10:54.716Z,99538.28
2023-10-02T08:13:50.032Z,99528.91
2023-10-02T08:16:58.696Z,99533.00
2023-10-02T08:19:55.657Z,99531.97
2023-10-02T08:22:37.591Z,99523.41
2023-10-02T08:25:35.263Z,99531.78
2023-10-02T08:28:24.742Z,99529.00
2023-10-02T08:31:15.210Z,99531.00
2023-10-02T08:34:10.762Z,99530.34
2023-10-02T08:36:42.579Z,99540.94
2023-10-02T08:41:52.902Z,99546.91
2023-10-02T08:44:24.485Z,99550.75
2023-10-02T08:46:56.794Z,99553.41
2023-10-02T08:49:31.669Z,99557.66
2023-10-02T08:52:05.009Z,99557.91
2023-10-02T08:54:34.871Z,99550.88
2023-10-02T08:57:09.739Z,99555.16
2023-10-02T08:59:41.996Z,99557.84
2023-10-02T09:02:15.529Z,99561.28
2023-10-02T09:05:11.744Z,99556.72
2023-10-02T09:08:03.408Z,99557.81
2023-10-02T09:10:42.480Z,99547.28
2023-10-02T09:13:15.796Z,99566.06
2023-10-02T09:15:47.954Z,99570.97
2023-10-02T09:18:36.217Z,99566.63
2023-10-02T09:21:16.696Z,99560.00
2023-10-02T09:23:53.337Z,99559.38
2023-10-02T09:26:26.454Z,99554.19
2023-10-02T09:29:03.135Z,99570.66
2023-10-02T09:31:34.703Z,99563.63
2023-10-02T09:34:37.054Z,99568.06
2023-10-02T09:37:32.540Z,99562.25
2023-10-02T09:40:16.172Z,99569.31
2023-10-02T09:42:49.858Z,99567.03
2023-10-02T09:45:18.624Z,99569.78
2023-10-02T09:48:03.611Z,99566.41
2023-10-02T09:50:41.218Z,99565.06
2023-10-02T09:53:11.286Z,99570.28
2023-10-02T09:55:58.747Z,99564.28
2023-10-02T09:58:35.312Z,99573.97
2023-10-02T10:01:39.087Z,99575.75
2023-10-02T10:04:24.779Z,99564.28
2023-10-02T10:07:08.348Z,99570.22
2023-10-02T10:09:50.705Z,99568.00
2023-10-02T10:12:52.235Z,99575.53
2023-10-02T10:15:26.930Z,99563.69
2023-10-02T10:17:58.100Z,99571.28
2023-10-02T10:20:29.053Z,99574.00
2023-10-02T10:22:59.258Z,99567.25
2023-10-02T10:25:45.595Z,99567.06
2023-10-02T10:28:30.461Z,99568.56
2023-10-02T10:31:03.632Z,99573.06
2023-10-02T10:33:37.644Z,99578.53
2023-10-02T10:36:47.355Z,99572.50
2023-10-02T10:40:25.999Z,99574.09
2023-10-02T10:43:01.742Z,99567.69
2023-10-02T10:45:34.957Z,99563.78
2023-10-02T10:48:05.940Z,99563.56
2023-10-02T10:50:34.608Z,99570.94
2023-10-02T10:53:24.614Z,99570.50
2023-10-02T10:55:56.680Z,99574.94
2023-10-02T10:58:33.241Z,99566.13
2023-10-02T11:01:04.012Z,99572.66
2023-10-02T11:03:36.053Z,99568.16
2023-10-02T11:06:06.016Z,99566.25
2023-10-02T11:08:39.225Z,99564.00
2023-10-02T11:11:21.297Z,99564.84
2023-10-02T11:13:56.279Z,99562.38
2023-10-02T11:16:32.385Z,99563.56
2023-10-02T11:19:15.686Z,99571.19
2023-10-02T11:22:15.853Z,99566.81
2023-10-02T11:24:46.221Z,99564.19
2023-10-02T11:27:16.539Z,99563.16
2023-10-02T11:30:03.033Z,99562.16
2023-10-02T11:32:49.371Z,99567.91
2023-10-02T11:35:19.742Z,99566.44
2023-10-02T11:37:48.805Z,99572.69
2023-10-02T11:40:17.942Z,99569.19
2023-10-02T11:42:46.703Z,99567.69
2023-10-02T11:45:16.071Z,99562.53
2023-10-02T11:47:46.748Z,99568.47
2023-10-02T11:50:17.720Z,99563.25
2023-10-02T11:52:48.929Z,99567.41
2023-10-02T11:55:19.025Z,99566.84
2023-10-02T11:57:52.791Z,99565.34
2023-10-02T12:00:23.030Z,99567.13
2023-10-02T12:02:52.005Z,99567.28
2023-10-02T12:05:21.129Z,99568.44
2023-10-02T12:07:51.211Z,99571.53
2023-10-02T12:10:19.839Z,99564.91
2023-10-02T12:12:48.242Z,99576.31
2023-10-02T12:15:18.082Z,99571.34
2023-10-02T12:17:49.108Z,99573.06
2023-10-02T12:20:24.371Z,99568.31
2023-10-02T12:22:54.961Z,99565.81
2023-10-02T12:25:23.946Z,99568.38
2023-10-02T12:27:53.802Z,99570.56
2023-10-02T12:30:22.457Z,99573.72
2023-10-02T12:32:51.729Z,99575.25
2023-10-02T12:35:22.260Z,99569.81
2023-10-02T12:37:51.753Z,99567.31
2023-10-02T12:40:23.394Z,99568.31
2023-10-02T12:42:52.542Z,99574.66
2023-10-02T12:45:21.036Z,99575.53
2023-10-02T12:47:49.653Z,99572.97
2023-10-02T12:50:19.917Z,99573.94
2023-10-02T12:52:48.521Z,99567.59
2023-10-02T12:55:17.343Z,99572.69
2023-10-02T12:57:48.954Z,99570.13
2023-10-02T13:00:19.728Z,99575.44
2023-10-02T13:02:49.562Z,99581.22
2023-10-02T13:05:20.244Z,99574.81
2023-10-02T13:07:49.520Z,99579.50
2023-10-02T13:10:18.036Z,99576.66
2023-10-02T13:12:49.131Z,99575.00
2023-10-02T13:15:18.179Z,99577.63
2023-10-02T13:17:46.687Z,99582.34
2023-10-02T13:20:15.422Z,99583.38
2023-10-02T13:22:43.787Z,99589.50
2023-10-02T13:25:14.227Z,99591.50
2023-10-02T13:27:43.129Z,99594.16
2023-10-02T13:30:14.433Z,99599.66
2023-10-02T13:32:43.056Z,99598.91
2023-10-02T13:35:12.396Z,99599.84
2023-10-02T13:37:41.304Z,99605.13
2023-10-02T13:40:27.543Z,99610.31
2023-10-02T13:42:57.651Z,99606.84
2023-10-02T13:45:27.643Z,99601.75
2023-10-02T13:47:58.901Z,99600.91
2023-10-02T13:50:28.056Z,99604.34
2023-10-02T13:52:56.509Z,99612.22
2023-10-02T13:55:26.763Z,99609.63
2023-10-02T13:57:58.440Z,99612.16
2023-10-02T14:00:29.250Z,99606.13
2023-10-02T14:02:57.822Z,99612.31
2023-10-02T14:05:31.219Z,99617.63
2023-10-02T14:08:00.637Z,99615.84
2023-10-02T14:10:30.869Z,99601.41
2023-10-02T14:13:00.888Z,99617.78
2023-10-02T14:15:31.896Z,99610.13
2023-10-02T14:18:02.175Z,99614.59
2023-10-02T14:20:31.186Z,99612.00
2023-10-02T14:22:59.685Z,99619.06
2023-10-02T14:25:28.481Z,99616.53
2023-10-02T14:27:57.013Z,99615.78
2023-10-02T14:30:25.952Z,99628.75
2023-10-02T14:32:55.897Z,99626.19
2023-10-02T14:35:25.734Z,99633.09
2023-10-02T14:37:54.646Z,99629.66
2023-10-02T14:40:31.197Z,99628.06
2023-10-02T14:43:03.829Z,99643.69
2023-10-02T14:45:35.451Z,99637.56
2023-10-02T14:48:06.585Z,99640.25
2023-10-02T14:50:38.729Z,99644.72
2023-10-02T14:53:10.346Z,99644.81
2023-10-02T14:55:40.315Z,99643.94
2023-10-02T14:58:08.971Z,99649.88
2023-10-02T15:00:37.928Z,99650.81
2023-10-02T15:03:08.235Z,99647.41
2023-10-02T15:05:38.768Z,99650.94
2023-10-02T15:08:12.070Z,99652.44
2023-10-02T15:10:44.003Z,99657.75
2023-10-02T15:13:14.695Z,99653.41
2023-10-02T15:15:43.079Z,99656.09
2023-10-02T15:18:15.341Z,99660.53
2023-10-02T15:20:44.967Z,99657.13
2023-10-02T15:23:14.628Z,99666.56
2023-10-02T15:25:44.502Z,99660.66
2023-10-02T15:28:16.020Z,99668.44
2023-10-02T15:30:44.545Z,99664.91
2023-10-02T15:33:15.182Z,99666.66
2023-10-02T15:35:44.663Z,99672.72
2023-10-02T15:38:13.667Z,99674.53
2023-10-02T15:40:45.633Z,99677.00
2023-10-02T15:43:16.164Z,99677.09
2023-10-02T15:45:46.642Z,99678.94
2023-10-02T15:48:17.526Z,99685.88
2023-10-02T15:50:46.069Z,99686.75
2023-10-02T15:53:14.585Z,99685.97
2023-10-02T15:55:43.683Z,99680.97
2023-10-02T15:58:13.492Z,99694.91
2023-10-02T16:00:42.107Z,99688.75
2023-10-02T16:03:11.194Z,99686.84
2023-10-02T16:05:42.113Z,99703.44
2023-10-02T16:08:11.136Z,99694.88
2023-10-02T16:10:39.679Z,99697.47
2023-10-02T16:13:08.409Z,99698.44
2023-10-02T16:15:37.314Z,99698.44
2023-10-02T16:18:07.214Z,99695.97
2023-10-02T16:20:40.258Z,99695.97
2023-10-02T16:23:10.598Z,99696.72
2023-10-02T16:25:39.010Z,99700.25
2023-10-02T16:28:11.378Z,99698.34
2023-10-02T16:30:40.183Z,99708.84
2023-10-02T16:33:09.418Z,99709.72
2023-10-02T16:35:38.153Z,99721.81
2023-10-02T16:38:07.030Z,99720.13
2023-10-02T16:40:37.345Z,99728.00
2023-10-02T16:43:06.692Z,99725.38
2023-10-02T16:45:36.038Z,99730.63
2023-10-02T16:48:06.826Z,99728.09
2023-10-02T16:50:36.883Z,99730.69
2023-10-02T16:53:05.962Z,99728.16
2023-10-02T16:55:34.485Z,99733.31
2023-10-02T16:58:04.718Z,99736.84
2023-10-02T17:00:33.825Z,99729.00
2023-10-02T17:03:04.413Z,99734.22
2023-10-02T17:05:33.936Z,99734.19
2023-10-02T17:08:03.224Z,99736.84
2023-10-02T17:10:33.156Z,99741.25
2023-10-02T17:13:01.677Z,99749.09
2023-10-02T17:15:34.525Z,99750.97
2023-10-02T17:18:03.924Z,99744.88
2023-10-02T17:20:32.700Z,99748.28
2023-10-02T17:23:03.970Z,99750.16
2023-10-02T17:25:32.927Z,99743.19
2023-10-02T17:28:02.908Z,99761.38
2023-10-02T17:30:33.892Z,99757.06
2023-10-02T17:33:04.040Z,99759.66
2023-10-02T17:35:33.025Z,99756.97
2023-10-02T17:38:02.284Z,99757.00
2023-10-02T17:40:32.019Z,99754.47
2023-10-02T17:43:00.648Z,99757.09
2023-10-02T17:45:29.464Z,99759.66
2023-10-02T17:47:59.591Z,99765.72
2023-10-02T17:50:28.242Z,99760.44
2023-10-02T17:52:56.914Z,99766.69
2023-10-02T17:55:25.874Z,99770.97
2023-10-02T17:57:57.561Z,99770.03
2023-10-02T18:00:27.653Z,99770.06
2023-10-02T18:02:56.786Z,99763.16
2023-10-02T18:05:29.682Z,99765.81
2023-10-02T18:07:58.529Z,99773.66
2023-10-02T18:10:27.092Z,99770.19
2023-10-02T18:12:56.273Z,99768.53
2023-10-02T18:15:24.776Z,99775.56
2023-10-02T18:17:54.046Z,99773.00
2023-10-02T18:20:23.144Z,99768.66
2023-10-02T18:22:53.203Z,99779.94
2023-10-02T18:25:23.776Z,99780.75
2023-10-02T18:27:52.304Z,99774.72
2023-10-02T18:30:22.802Z,99785.16
2023-10-02T18:32:52.683Z,99785.16
2023-10-02T18:35:21.255Z,99784.34
2023-10-02T18:37:49.935Z,99786.03
2023-10-02T18:40:21.073Z,99783.56
2023-10-02T18:42:50.603Z,99780.16
2023-10-02T18:45:19.294Z,99785.34
2023-10-02T18:47:49.221Z,99778.47
2023-10-02T18:50:18.218Z,99782.88
2023-10-02T18:52:46.891Z,99794.09
2023-10-02T18:55:15.782Z,99789.78
2023-10-02T18:57:45.938Z,99790.66
2023-10-02T19:00:18.323Z,99788.97
2023-10-02T19:02:48.055Z,99799.44
2023-10-02T19:05:17.018Z,99798.56
2023-10-02T19:07:45.795Z,99795.16
2023-10-02T19:10:15.482Z,99794.28
2023-10-02T19:12:45.921Z,99792.66
2023-10-02T19:15:14.627Z,99801.22
2023-10-02T19:17:44.248Z,99797.81
2023-10-02T19:20:14.579Z,99802.19
2023-10-02T19:22:44.960Z,99813.44
2023-10-02T19:25:14.786Z,99810.94
2023-10-02T19:27:43.486Z,99809.28
2023-10-02T19:30:16.073Z,99804.03
2023-10-02T19:32:45.416Z,99804.97
2023-10-02T19:35:14.691Z,99807.50
2023-10-02T19:37:43.316Z,99811.88
2023-10-02T19:40:15.918Z,99816.16
2023-10-02T19:42:45.631Z,99813.69
2023-10-02T19:45:15.860Z,99815.41
2023-10-02T19:47:45.200Z,99809.41
2023-10-02T19:50:16.062Z,99816.38
2023-10-02T19:52:44.574Z,99813.81
2023-10-02T19:55:12.934Z,99809.53
2023-10-02T19:57:42.196Z,99812.94
2023-10-02T20:00:12.297Z,99818.97
2023-10-02T20:02:44.046Z,99822.44
2023-10-02T20:05:13.852Z,99816.38
2023-10-02T20:07:43.323Z,99815.53
2023-10-02T20:10:13.204Z,99817.38
2023-10-02T20:12:44.212Z,99812.25
2023-10-02T20:15:13.545Z,99813.94
2023-10-02T20:17:43.580Z,99805.34
2023-10-02T20:20:13.167Z,99816.59
2023-10-02T20:22:42.036Z,99816.56
2023-10-02T20:25:13.374Z,99813.97
2023-10-02T20:27:42.463Z,99810.53
2023-10-02T20:30:12.098Z,99810.50
2023-10-02T20:32:42.359Z,99813.13
2023-10-02T20:35:12.350Z,99816.66
2023-10-02T20:37:42.503Z,99818.38
2023-10-02T20:40:13.738Z,99826.19
2023-10-02T20:42:42.402Z,99830.53
2023-10-02T20:45:12.404Z,99825.34
2023-10-02T20:47:42.471Z,99821.00
2023-10-02T20:50:11.861Z,99815.81
2023-10-02T20:52:40.679Z,99816.72
2023-10-02T20:55:10.246Z,99817.59
2023-10-02T20:57:39.796Z,99817.63
2023-10-02T21:00:15.544Z,99804.78
2023-10-02T21:02:46.515Z,99821.16
2023-10-02T21:05:15.860Z,99817.75
2023-10-02T21:07:44.708Z,99825.53
2023-10-02T21:10:13.516Z,99816.84
2023-10-02T21:12:42.253Z,99828.13
2023-10-02T21:15:13.453Z,99828.09
2023-10-02T21:17:43.270Z,99823.81
2023-10-02T21:20:15.505Z,99833.34
2023-10-02T21:22:45.682Z,99829.09
2023-10-02T21:25:14.860Z,99832.53
2023-10-02T21:27:43.664Z,99829.06
2023-10-02T21:30:13.727Z,99823.91
2023-10-02T21:32:43.472Z,99831.72
2023-10-02T21:35:13.768Z,99824.84
2023-10-02T21:37:43.013Z,99833.47
2023-10-02T21:40:15.280Z,99825.69
2023-10-02T21:42:44.368Z,99829.13
2023-10-02T21:45:13.512Z,99830.00
2023-10-02T21:47:43.172Z,99830.00
2023-10-02T21:50:13.502Z,99830.88
2023-10-02T21:52:42.323Z,99840.34
2023-10-02T21:55:13.326Z,99838.59
2023-10-02T21:57:42.024Z,99842.03
2023-10-02T22:00:32.925Z,99835.13
2023-10-02T22:03:01.901Z,99842.03
2023-10-02T22:05:31.878Z,99846.38
2023-10-02T22:08:01.631Z,99850.78
2023-10-02T22:10:31.518Z,99846.47
2023-10-02T22:13:00.071Z,99847.31
2023-10-02T22:15:30.472Z,99856.88
2023-10-02T22:17:59.001Z,99856.94
2023-10-02T22:20:27.960Z,99857.75
2023-10-02T22:23:00.048Z,99850.84
2023-10-02T22:25:28.883Z,99859.47
2023-10-02T22:27:57.439Z,99858.69
2023-10-02T22:30:26.060Z,99857.81
2023-10-02T22:32:54.626Z,99848.34
2023-10-02T22:35:25.421Z,99849.19
2023-10-02T22:37:58.953Z,99858.75
2023-10-02T22:40:29.600Z,99857.00
2023-10-02T22:42:58.259Z,99855.25
2023-10-02T22:45:26.949Z,99851.81
2023-10-02T22:47:56.689Z,99863.94
2023-10-02T22:50:25.862Z,99856.25
2023-10-02T22:52:54.481Z,99855.44
2023-10-02T22:55:26.032Z,99854.59
2023-10-02T22:57:56.984Z,99854.66
2023-10-02T23:00:27.251Z,99858.16
2023-10-02T23:02:56.356Z,99856.47
2023-10-02T23:05:25.951Z,99859.13
2023-10-02T23:07:55.627Z,99857.41
2023-10-02T23:10:25.046Z,99862.66
2023-10-02T23:12:56.573Z,99863.59
2023-10-02T23:15:25.629Z,99862.81
2023-10-02T23:17:54.960Z,99863.72
2023-10-02T23:20:24.729Z,99858.56
2023-10-02T23:22:53.372Z,99863.81
2023-10-02T23:25:28.001Z,99863.88
2023-10-02T23:28:00.394Z,99867.34
2023-10-02T23:30:29.266Z,99859.56
2023-10-02T23:33:00.165Z,99857.88
2023-10-02T23:35:29.333Z,99871.75
2023-10-02T23:38:00.428Z,99868.34
2023-10-02T23:40:30.089Z,99859.72
2023-10-02T23:43:01.753Z,99870.94
2023-10-02T23:45:35.017Z,99876.09
2023-10-02T23:48:06.608Z,99866.66
2023-10-02T23:50:38.459Z,99876.91
2023-10-02T23:53:09.585Z,99876.91
2023-10-02T23:55:39.530Z,99876.06
2023-10-02T23:58:09.877Z,99877.81
